Stations météo

réclame
Mon MeteoGroup
Kristianstad, Suède (2651): Température de l'air & dewpoint: 19.02.2018 06:00:00 - 25.02.2018 06:00:00 (CET)Kristianstad, Suède (2651): Vitesse du vent: 19.02.2018 06:00:00 - 25.02.2018 06:00:00 (CET)Kristianstad, Suède (2651): Direction du vent: 19.02.2018 06:00:00 - 25.02.2018 06:00:00 (CET)Kristianstad, Suède (2651): visibility: 19.02.2018 06:00:00 - 25.02.2018 06:00:00 (CET)
Date & Time tt [°C] td [°C] ff [km/h] ff [knt] dd vv [km]
25.02.2018 06:00:00 -6,0 - 13 7 N 10
25.02.2018 05:00:00 -6,0 - 13 7 N 10
25.02.2018 04:00:00 -6,0 - 11 6 N 10
25.02.2018 03:00:00 -7,0 - 11 6 NNW 10
25.02.2018 02:00:00 -7,0 - 9 5 NNW 10
25.02.2018 01:00:00 -7,0 - 8 4 NNW 10
25.02.2018 00:00:00 -7,0 - 9 5 N 10
24.02.2018 23:00:00 -6,0 - 9 5 N 10
24.02.2018 22:00:00 -6,0 - 11 6 NNE 10
24.02.2018 21:00:00 -6,0 - 9 5 NNE 10
24.02.2018 20:00:00 -6,0 - 11 6 NNE 10
24.02.2018 19:00:00 -5,0 - 8 4 NNE 10
24.02.2018 18:00:00 -4,0 - 11 6 NE 10
24.02.2018 17:00:00 -2,0 - 16 9 NE 10
24.02.2018 16:00:00 -2,0 - 18 10 NE 10
24.02.2018 15:00:00 -2,0 - 16 9 NE 10
24.02.2018 14:00:00 -1,0 - 18 10 ENE 10
24.02.2018 13:00:00 -1,0 - 22 12 ENE 10
24.02.2018 12:00:00 -1,0 - 18 10 NE 10
24.02.2018 11:00:00 -3,0 - 16 9 NNE 10
24.02.2018 10:00:00 -4,0 - 15 8 NNE 10
24.02.2018 09:00:00 -5,0 - 16 9 NNE 10
24.02.2018 08:00:00 -7,0 - 13 7 N 10
24.02.2018 07:00:00 -7,0 - 11 6 NNE 10
24.02.2018 06:00:00 -7,0 - 11 6 N 10
24.02.2018 05:00:00 -7,0 - 9 5 N 10
24.02.2018 04:00:00 -6,0 - 9 5 N 10
24.02.2018 03:00:00 -5,0 - 9 5 NNE 10
24.02.2018 02:00:00 -4,0 - 13 7 NNE 10
24.02.2018 01:00:00 -3,0 - 13 7 NE 10
24.02.2018 00:00:00 -3,0 - 18 10 NE 10
23.02.2018 23:00:00 -1,0 - 11 6 NNE 10
23.02.2018 22:00:00 -1,0 - 11 6 N 10
23.02.2018 21:00:00 -1,0 - 13 7 NNE 10
23.02.2018 20:00:00 -1,0 - 15 8 NNE 10
23.02.2018 19:00:00 -1,0 - 16 9 N 10
23.02.2018 18:00:00 -2,0 - 15 8 N 10
23.02.2018 17:00:00 -2,0 - 15 8 NW 10
23.02.2018 16:00:00 -2,0 - 16 9 NW 10
23.02.2018 15:00:00 -1,0 - 16 9 WNW 10
23.02.2018 14:00:00 -1,0 - 18 10 NW 10
23.02.2018 13:00:00 -1,0 - 15 8 WNW 10
23.02.2018 12:00:00 -1,0 - 11 6 W 10
23.02.2018 11:00:00 -1,0 - 8 4 W 10
23.02.2018 10:00:00 -2,0 - 8 4 SW 10
23.02.2018 09:00:00 -5,0 - 4 2 - 10
23.02.2018 08:00:00 -8,0 - 4 2 W 10
23.02.2018 07:00:00 -10,0 -11,0 0 0 N 10
23.02.2018 06:00:00 -8,0 -9,0 0 0 N 10
23.02.2018 05:00:00 -9,0 -9,0 4 2 W 10
23.02.2018 04:00:00 -8,0 -9,0 4 2 WNW 10
23.02.2018 03:00:00 -8,0 -8,0 4 2 WNW 8
23.02.2018 02:00:00 -7,0 -7,0 5 3 WNW 7
23.02.2018 01:00:00 -7,0 -7,0 4 2 W 4,4
23.02.2018 00:00:00 -6,0 -6,0 4 2 W 10
22.02.2018 23:00:00 -5,0 -6,0 4 2 WNW 10
22.02.2018 22:00:00 -5,0 -7,0 0 0 N 10
22.02.2018 21:00:00 -4,0 -7,0 4 2 - 10
22.02.2018 20:00:00 -2,0 -6,0 4 2 ESE 10
22.02.2018 19:00:00 -1,0 -5,0 4 2 ENE 10
22.02.2018 18:00:00 -1,0 -4,0 5 3 SSE 10
22.02.2018 17:00:00 -1,0 -4,0 8 4 SE 10
22.02.2018 16:00:00 -1,0 -3,0 15 8 ESE 6
22.02.2018 15:00:00 0,0 -3,0 13 7 E 10
22.02.2018 14:00:00 0,0 -3,0 8 4 ENE 10
22.02.2018 13:00:00 0,0 -3,0 11 6 E 10
22.02.2018 12:00:00 -1,0 -5,0 11 6 NE 10
22.02.2018 11:00:00 -1,0 -6,0 9 5 NNE 10
22.02.2018 10:00:00 -3,0 -6,0 8 4 N 10
22.02.2018 09:00:00 -3,0 -6,0 8 4 N 10
22.02.2018 08:00:00 -4,0 -6,0 5 3 NNE 10
22.02.2018 07:00:00 -4,0 -7,0 9 5 NE 10
22.02.2018 06:00:00 -3,0 -7,0 9 5 NE 10
22.02.2018 05:00:00 -3,0 -6,0 11 6 NNE 10
22.02.2018 04:00:00 -3,0 -5,0 9 5 ENE 10
22.02.2018 03:00:00 -3,0 -5,0 11 6 ENE 10
22.02.2018 02:00:00 -2,0 -4,0 13 7 NE 10
22.02.2018 01:00:00 -2,0 -4,0 9 5 NNE 10
22.02.2018 00:00:00 -2,0 -4,0 11 6 NE 10
21.02.2018 23:00:00 0,0 -3,0 8 4 NE 10
21.02.2018 22:00:00 0,0 -1,0 5 3 N 7
21.02.2018 21:00:00 0,0 -1,0 5 3 NNW 2,4
21.02.2018 20:00:00 0,0 -1,0 4 2 NW 10
21.02.2018 19:00:00 0,0 -1,0 4 2 W 7
21.02.2018 18:00:00 1,0 -1,0 5 3 WNW 8
21.02.2018 17:00:00 2,0 -2,0 9 5 WNW 10
21.02.2018 16:00:00 2,0 -2,0 2 1 NNW 10
21.02.2018 15:00:00 1,0 -1,0 9 5 NNE 10
21.02.2018 14:00:00 3,0 -3,0 9 5 NW 10
21.02.2018 13:00:00 2,0 -2,0 9 5 WNW 10
21.02.2018 12:00:00 1,0 -2,0 8 4 WNW 10
21.02.2018 11:00:00 1,0 -1,0 5 3 WNW 10
21.02.2018 10:00:00 0,0 -2,0 2 1 - 9
21.02.2018 09:00:00 -1,0 -2,0 0 0 N 8
21.02.2018 08:00:00 -2,0 -2,0 0 0 N 9
21.02.2018 07:00:00 -2,0 -2,0 0 0 N 8
21.02.2018 06:00:00 -1,0 -2,0 0 0 N 9
21.02.2018 05:00:00 -1,0 -2,0 0 0 N 9
21.02.2018 04:00:00 -1,0 -2,0 0 0 N 10
21.02.2018 03:00:00 -1,0 -2,0 0 0 N 10
21.02.2018 02:00:00 -1,0 -2,0 0 0 N 10
21.02.2018 01:00:00 -1,0 -2,0 0 0 N 10
21.02.2018 00:00:00 0,0 -2,0 5 3 N 10
20.02.2018 23:00:00 0,0 -2,0 5 3 ENE 10
20.02.2018 22:00:00 0,0 -2,0 8 4 NNE 10
20.02.2018 21:00:00 0,0 -2,0 5 3 NE 10
20.02.2018 20:00:00 0,0 -2,0 8 4 NE 10
20.02.2018 19:00:00 0,0 -2,0 8 4 NE 10
20.02.2018 18:00:00 0,0 -2,0 13 7 ENE 10
20.02.2018 17:00:00 1,0 -2,0 15 8 E 10
20.02.2018 16:00:00 1,0 -1,0 15 8 E 10
20.02.2018 15:00:00 2,0 -1,0 18 10 E 10
20.02.2018 14:00:00 2,0 -1,0 13 7 NE 10
20.02.2018 13:00:00 1,0 -1,0 16 9 NE 10
20.02.2018 12:00:00 1,0 -1,0 11 6 E 10
20.02.2018 11:00:00 0,0 0,0 5 3 - 7
20.02.2018 10:00:00 -1,0 -1,0 5 3 ENE 3,5
20.02.2018 09:00:00 -2,0 -2,0 9 5 ENE 0,9
20.02.2018 08:00:00 -3,0 -3,0 9 5 NNE 4,5
20.02.2018 07:00:00 -3,0 -3,0 9 5 NE 4,5
20.02.2018 06:00:00 -1,0 -2,0 8 4 NE 7
20.02.2018 05:00:00 0,0 -1,0 11 6 ENE 7
20.02.2018 04:00:00 0,0 -1,0 11 6 NE 10
20.02.2018 03:00:00 0,0 -1,0 11 6 NNE 10
20.02.2018 02:00:00 2,0 -2,0 5 3 E 10
20.02.2018 01:00:00 1,0 -3,0 11 6 E 10
20.02.2018 00:00:00 1,0 -3,0 8 4 ESE 10
19.02.2018 23:00:00 0,0 -3,0 8 4 ESE 10
19.02.2018 22:00:00 0,0 -3,0 5 3 ESE 10
19.02.2018 21:00:00 0,0 -2,0 5 3 SE 7
19.02.2018 20:00:00 0,0 -1,0 5 3 ESE 8
19.02.2018 19:00:00 0,0 -1,0 8 4 SE 10
19.02.2018 18:00:00 1,0 -1,0 11 6 SE 10
19.02.2018 17:00:00 2,0 -1,0 9 5 SE 10
19.02.2018 16:00:00 3,0 -1,0 11 6 SE 10
19.02.2018 15:00:00 4,0 0,0 9 5 SSE 10
19.02.2018 14:00:00 4,0 -1,0 9 5 S 10
19.02.2018 13:00:00 3,0 - 9 5 S 10
19.02.2018 12:00:00 3,0 - 8 4 S 10
19.02.2018 11:00:00 3,0 3,0 9 5 S 10
19.02.2018 10:00:00 1,0 1,0 8 4 SSW 7
19.02.2018 09:00:00 1,0 1,0 13 7 SSW 6
19.02.2018 08:00:00 -2,0 -2,0 9 5 SSW 4,4
19.02.2018 07:00:00 -3,0 -3,0 8 4 SSW 1,3
19.02.2018 06:00:00 -2,0 -3,0 4 2 ESE 3,0

tt = Température de l'air
td = dewpoint
ff = Vitesse du vent
dd = Direction du vent
vv = visibility

stations d'obs. à proximité